Huntsville, Utah
Current Conditions -  °F | °C
As of 7:53 PM on Saturday 22 Nov 2014 (Local Time) from KOGD Reporting Station
Overcast Overcast  
Wind Chill: 30°   Ceiling: 4700
Heat Index: 36°   Visibility: 10mi
Dew Point: 35°   Wind: 7mph
Humidity: 97%   Direction: 170°S
Pressure: 29.87"   Gusts: NA
Location:  41.26°N, 111.77°W
Report Text: KOGD 230253Z AUTO 17006KT 10SM BKN047 OVC055 02/02 A2987 RMK AO2 SLP108 60000 T00220017 53018 TSNO
Loading
Personal Weather Stations






























Interactive Weather Map New forecast layout! Learn more

10-Day Weather Forecast

Advertisements
Track Severe Weather on mobile